createdAt,value
2019-01-21T00:01:19.504Z,26.77
2019-01-21T00:03:48.941Z,25.83
2019-01-21T00:06:18.353Z,27.03
2019-01-21T00:08:47.999Z,27.87
2019-01-21T00:11:17.410Z,23.13
2019-01-21T00:13:46.860Z,28.13
2019-01-21T00:16:17.033Z,28.37
2019-01-21T00:18:46.394Z,26.13
2019-01-21T00:21:16.054Z,28.27
2019-01-21T00:23:45.485Z,28.20
2019-01-21T00:26:14.879Z,27.50
2019-01-21T00:28:44.252Z,27.07
2019-01-21T00:31:13.687Z,41.00
2019-01-21T00:33:43.114Z,31.70
2019-01-21T00:36:12.680Z,28.20
2019-01-21T00:38:42.499Z,29.53
2019-01-21T00:41:11.973Z,28.87
2019-01-21T00:43:41.370Z,29.83
2019-01-21T00:46:10.957Z,29.73
2019-01-21T00:48:40.725Z,30.77
2019-01-21T00:51:10.229Z,31.20
2019-01-21T00:53:39.619Z,31.33
2019-01-21T00:56:09.018Z,31.37
2019-01-21T00:58:38.551Z,31.23
2019-01-21T01:01:07.988Z,30.37
2019-01-21T01:03:37.395Z,30.53
2019-01-21T01:06:07.196Z,31.50
2019-01-21T01:08:36.668Z,31.17
2019-01-21T01:11:06.227Z,32.47
2019-01-21T01:13:35.626Z,31.20
2019-01-21T01:16:05.195Z,31.87
2019-01-21T01:18:34.774Z,31.50
2019-01-21T01:21:04.328Z,31.23
2019-01-21T01:23:33.972Z,29.87
2019-01-21T01:26:03.450Z,32.20
2019-01-21T01:28:32.882Z,29.93
2019-01-21T01:31:02.559Z,33.83
2019-01-21T01:33:31.958Z,33.77
2019-01-21T01:36:01.353Z,33.03
2019-01-21T01:38:31.010Z,33.77
2019-01-21T01:41:00.803Z,32.23
2019-01-21T01:43:30.501Z,32.53
2019-01-21T01:46:00.039Z,33.03
2019-01-21T01:48:30.326Z,32.53
2019-01-21T01:51:00.053Z,32.17
2019-01-21T01:53:30.112Z,31.73
2019-01-21T01:56:00.222Z,33.20
2019-01-21T01:58:29.678Z,31.33
2019-01-21T02:00:59.194Z,32.00
2019-01-21T02:03:29.369Z,31.90
2019-01-21T02:05:59.222Z,31.07
2019-01-21T02:08:28.767Z,30.93
2019-01-21T02:10:58.855Z,32.00
2019-01-21T02:13:28.364Z,30.73
2019-01-21T02:15:57.975Z,29.73
2019-01-21T02:18:27.812Z,31.23
2019-01-21T02:20:58.890Z,29.13
2019-01-21T02:23:37.135Z,30.27
2019-01-21T02:26:09.758Z,27.73
2019-01-21T02:28:48.577Z,29.90
2019-01-21T02:31:57.271Z,30.37
2019-01-21T02:34:32.964Z,29.23
2019-01-21T02:37:29.105Z,28.77
2019-01-21T02:40:01.986Z,28.03
2019-01-21T02:42:37.309Z,29.20
2019-01-21T02:45:24.505Z,29.27
2019-01-21T02:48:09.354Z,29.30
2019-01-21T02:50:50.858Z,30.63
2019-01-21T02:53:26.382Z,31.40
2019-01-21T02:56:15.699Z,30.30
2019-01-21T02:58:57.481Z,31.33
2019-01-21T03:01:39.706Z,30.53
2019-01-21T03:04:31.575Z,29.27
2019-01-21T03:07:13.162Z,31.67
2019-01-21T03:10:00.412Z,30.87
2019-01-21T03:12:42.126Z,30.03
2019-01-21T03:15:23.532Z,30.10
2019-01-21T03:17:56.015Z,30.30
2019-01-21T03:20:36.889Z,29.30
2019-01-21T03:23:28.288Z,31.53
2019-01-21T03:26:09.615Z,30.63
2019-01-21T03:28:42.540Z,30.83
2019-01-21T03:31:18.180Z,30.90
2019-01-21T03:34:05.909Z,31.00
2019-01-21T03:36:57.623Z,31.20
2019-01-21T03:39:56.247Z,30.33
2019-01-21T03:42:34.663Z,30.27
2019-01-21T03:45:26.676Z,29.13
2019-01-21T03:48:00.380Z,29.17
2019-01-21T03:50:48.084Z,29.53
2019-01-21T03:53:32.916Z,28.80
2019-01-21T03:56:04.990Z,27.97
2019-01-21T03:58:46.531Z,28.60
2019-01-21T04:01:25.024Z,26.87
2019-01-21T04:04:23.641Z,29.23
2019-01-21T04:06:56.582Z,29.10
2019-01-21T04:09:35.430Z,30.23
2019-01-21T04:12:28.803Z,28.80
2019-01-21T04:15:17.991Z,28.60
2019-01-21T04:18:16.295Z,28.43
2019-01-21T04:21:02.199Z,29.27
2019-01-21T04:23:59.159Z,27.83
2019-01-21T04:26:34.948Z,29.33
2019-01-21T04:29:25.364Z,28.67
2019-01-21T04:32:00.659Z,28.40
2019-01-21T04:34:45.071Z,29.10
2019-01-21T04:37:23.911Z,30.20
2019-01-21T04:39:56.487Z,27.90
2019-01-21T04:43:01.598Z,30.57
2019-01-21T04:45:54.569Z,30.73
2019-01-21T04:48:33.196Z,32.17
2019-01-21T04:51:03.931Z,29.90
2019-01-21T04:53:43.801Z,29.70
2019-01-21T04:56:40.647Z,31.00
2019-01-21T04:59:18.940Z,29.77
2019-01-21T05:02:19.772Z,29.20
2019-01-21T05:04:52.226Z,28.00
2019-01-21T05:07:41.316Z,29.10
2019-01-21T05:10:45.549Z,30.93
2019-01-21T05:13:33.043Z,30.37
2019-01-21T05:16:14.099Z,31.13
2019-01-21T05:18:46.759Z,30.27
2019-01-21T05:21:25.459Z,31.07
2019-01-21T05:24:01.113Z,32.37
2019-01-21T05:26:51.427Z,31.50
2019-01-21T05:29:29.859Z,32.20
2019-01-21T05:32:21.828Z,32.90
2019-01-21T05:35:11.278Z,32.43
2019-01-21T05:37:55.758Z,32.73
2019-01-21T05:40:39.900Z,32.27
2019-01-21T05:43:47.325Z,31.63
2019-01-21T05:46:22.488Z,31.67
2019-01-21T05:49:17.871Z,31.57
2019-01-21T05:52:04.474Z,31.80
2019-01-21T05:55:05.974Z,30.83
2019-01-21T05:58:03.552Z,31.60
2019-01-21T06:00:44.786Z,31.40
2019-01-21T06:03:17.323Z,31.97
2019-01-21T06:06:12.507Z,33.17
2019-01-21T06:09:04.981Z,32.70
2019-01-21T06:11:37.624Z,31.47
2019-01-21T06:14:10.090Z,32.17
2019-01-21T06:16:59.141Z,31.70
2019-01-21T06:19:46.327Z,32.77
2019-01-21T06:22:21.460Z,33.57
2019-01-21T06:24:54.006Z,36.43
2019-01-21T06:27:44.687Z,39.30
2019-01-21T06:30:40.097Z,36.80
2019-01-21T06:33:36.993Z,35.70
2019-01-21T06:36:15.325Z,32.33
2019-01-21T06:39:14.908Z,34.70
2019-01-21T06:41:47.437Z,32.93
2019-01-21T06:44:51.459Z,34.67
2019-01-21T06:47:23.947Z,35.37
2019-01-21T06:50:20.317Z,34.80
2019-01-21T06:53:01.742Z,34.47
2019-01-21T06:55:56.926Z,34.00
2019-01-21T06:58:41.047Z,34.30
2019-01-21T07:01:46.774Z,34.67
2019-01-21T07:04:19.397Z,34.30
2019-01-21T07:07:09.848Z,35.03
2019-01-21T07:10:00.602Z,36.10
2019-01-21T07:12:45.001Z,34.77
2019-01-21T07:15:28.838Z,33.73
2019-01-21T07:18:25.947Z,32.77
2019-01-21T07:21:02.758Z,35.47
2019-01-21T07:23:51.623Z,35.90
2019-01-21T07:26:32.766Z,33.63
2019-01-21T07:29:23.526Z,34.07
2019-01-21T07:31:58.695Z,34.53
2019-01-21T07:34:37.072Z,34.37
2019-01-21T07:37:21.807Z,35.50
2019-01-21T07:40:00.356Z,34.27
2019-01-21T07:42:39.063Z,34.30
2019-01-21T07:45:29.711Z,32.23
2019-01-21T07:48:20.023Z,33.27
2019-01-21T07:51:07.639Z,34.77
2019-01-21T07:53:49.126Z,33.03
2019-01-21T07:56:24.541Z,35.47
2019-01-21T07:59:16.950Z,35.63
2019-01-21T08:01:55.013Z,35.87
2019-01-21T08:04:33.304Z,34.70
2019-01-21T08:07:05.776Z,35.13
2019-01-21T08:09:44.325Z,35.37
2019-01-21T08:12:38.070Z,36.73
2019-01-21T08:15:13.455Z,36.00
2019-01-21T08:17:55.045Z,34.70
2019-01-21T08:20:27.774Z,34.50
2019-01-21T08:23:09.327Z,34.73
2019-01-21T08:25:50.559Z,33.97
2019-01-21T08:28:45.410Z,34.27
2019-01-21T08:31:26.936Z,33.27
2019-01-21T08:34:20.083Z,32.77
2019-01-21T08:37:24.399Z,33.23
2019-01-21T08:40:09.083Z,31.20
2019-01-21T08:42:58.352Z,30.93
2019-01-21T08:45:59.760Z,31.93
2019-01-21T08:48:35.062Z,31.07
2019-01-21T08:51:24.159Z,29.70
2019-01-21T08:54:03.120Z,31.50
2019-01-21T08:56:38.118Z,32.73
2019-01-21T08:59:32.816Z,29.63
2019-01-21T09:02:30.260Z,31.90
2019-01-21T09:05:20.480Z,31.63
2019-01-21T09:08:28.271Z,32.73
2019-01-21T09:11:22.392Z,32.87
2019-01-21T09:14:14.341Z,32.43
2019-01-21T09:16:49.926Z,32.47
2019-01-21T09:19:25.364Z,31.27
2019-01-21T09:21:57.846Z,30.70
2019-01-21T09:24:33.358Z,31.17
2019-01-21T09:27:26.749Z,30.20
2019-01-21T09:30:19.036Z,30.23
2019-01-21T09:33:06.489Z,31.00
2019-01-21T09:35:59.728Z,30.63
2019-01-21T09:38:41.799Z,30.07
2019-01-21T09:41:35.604Z,32.33
2019-01-21T09:44:19.943Z,30.33
2019-01-21T09:46:48.259Z,28.53
2019-01-21T09:49:16.592Z,27.67
2019-01-21T09:51:49.477Z,26.77
2019-01-21T09:54:21.209Z,23.87
2019-01-21T09:56:52.247Z,22.43
2019-01-21T09:59:23.013Z,19.87
2019-01-21T10:01:55.522Z,20.07
2019-01-21T10:04:33.551Z,19.00
2019-01-21T10:07:22.332Z,19.13
2019-01-21T10:10:06.506Z,17.53
2019-01-21T10:12:59.692Z,17.43
2019-01-21T10:15:55.095Z,17.00
2019-01-21T10:18:49.026Z,17.60
2019-01-21T10:21:24.103Z,17.53
2019-01-21T10:24:02.458Z,17.70
2019-01-21T10:26:37.687Z,20.13
2019-01-21T10:29:19.004Z,19.23
2019-01-21T10:32:20.507Z,19.73
2019-01-21T10:34:55.926Z,18.97
2019-01-21T10:38:01.514Z,21.47
2019-01-21T10:40:44.489Z,20.87
2019-01-21T10:43:22.539Z,21.40
2019-01-21T10:46:09.808Z,22.27
2019-01-21T10:48:45.033Z,23.20
2019-01-21T10:51:20.320Z,21.67
2019-01-21T10:53:58.557Z,22.40
2019-01-21T10:56:49.206Z,22.30
2019-01-21T10:59:31.385Z,21.63
2019-01-21T11:02:23.239Z,21.87
2019-01-21T11:05:10.970Z,20.77
2019-01-21T11:07:49.342Z,21.37
2019-01-21T11:10:40.084Z,23.20
2019-01-21T11:13:15.447Z,21.00
2019-01-21T11:15:50.590Z,20.20
2019-01-21T11:18:34.727Z,20.33
2019-01-21T11:21:16.353Z,21.73
2019-01-21T11:23:51.351Z,21.00
2019-01-21T11:26:43.818Z,19.80
2019-01-21T11:29:38.703Z,21.17
2019-01-21T11:32:17.015Z,20.33
2019-01-21T11:34:55.466Z,20.83
2019-01-21T11:37:33.811Z,19.80
2019-01-21T11:40:09.301Z,18.37
2019-01-21T11:43:00.085Z,19.63
2019-01-21T11:45:53.584Z,20.33
2019-01-21T11:48:26.151Z,20.40
2019-01-21T11:51:13.903Z,21.07
2019-01-21T11:53:53.402Z,21.47
2019-01-21T11:56:46.363Z,21.77
2019-01-21T11:59:43.176Z,21.90
2019-01-21T12:02:28.055Z,23.67
2019-01-21T12:05:03.175Z,24.20
2019-01-21T12:07:38.530Z,23.63
2019-01-21T12:10:16.698Z,21.97
2019-01-21T12:13:18.201Z,22.13
2019-01-21T12:16:22.364Z,23.67
2019-01-21T12:19:19.442Z,22.40
2019-01-21T12:21:54.944Z,22.20
2019-01-21T12:24:25.436Z,23.63
2019-01-21T12:26:58.004Z,23.23
2019-01-21T12:29:50.376Z,22.27
2019-01-21T12:32:32.376Z,21.30
2019-01-21T12:35:30.873Z,21.33
2019-01-21T12:38:09.134Z,20.13
2019-01-21T12:41:02.802Z,20.63
2019-01-21T12:43:41.181Z,20.87
2019-01-21T12:46:22.828Z,20.67
2019-01-21T12:49:13.574Z,20.70
2019-01-21T12:51:46.298Z,19.60
2019-01-21T12:54:21.570Z,19.93
2019-01-21T12:57:13.349Z,20.43
2019-01-21T12:59:54.971Z,20.90
2019-01-21T13:02:58.219Z,19.67
2019-01-21T13:05:36.717Z,19.67
2019-01-21T13:08:22.853Z,22.37
2019-01-21T13:10:55.328Z,21.47
2019-01-21T13:13:36.916Z,20.70
2019-01-21T13:16:15.449Z,20.53
2019-01-21T13:19:04.425Z,21.47
2019-01-21T13:21:57.877Z,21.07
2019-01-21T13:24:50.976Z,19.67
2019-01-21T13:27:37.218Z,20.70
2019-01-21T13:30:27.536Z,20.47
2019-01-21T13:33:18.310Z,21.13
2019-01-21T13:36:11.435Z,22.23
2019-01-21T13:39:09.704Z,22.73
2019-01-21T13:41:47.969Z,23.93
2019-01-21T13:44:31.965Z,23.90
2019-01-21T13:47:22.546Z,25.57
2019-01-21T13:49:58.061Z,24.30
2019-01-21T13:52:52.231Z,25.40
2019-01-21T13:55:39.635Z,25.90
2019-01-21T13:58:32.938Z,28.07
2019-01-21T14:01:11.472Z,25.93
2019-01-21T14:04:02.265Z,21.70
2019-01-21T14:06:53.163Z,12.17
2019-01-21T14:09:28.979Z,11.03
2019-01-21T14:12:21.119Z,12.80
2019-01-21T14:15:24.128Z,11.60
2019-01-21T14:17:59.668Z,16.77
2019-01-21T14:20:35.179Z,16.03
2019-01-21T14:23:31.963Z,13.67
2019-01-21T14:26:36.079Z,12.20
2019-01-21T14:29:13.123Z,13.33
2019-01-21T14:32:03.410Z,15.50
2019-01-21T14:34:41.805Z,13.70
2019-01-21T14:37:41.998Z,18.27
2019-01-21T14:40:17.292Z,12.60
2019-01-21T14:43:08.603Z,12.70
2019-01-21T14:45:59.585Z,13.57
2019-01-21T14:48:37.935Z,13.60
2019-01-21T14:51:10.510Z,13.93
2019-01-21T14:53:46.162Z,12.97
2019-01-21T14:56:30.683Z,14.77
2019-01-21T14:59:28.770Z,13.73
2019-01-21T15:01:58.732Z,14.37
2019-01-21T15:04:33.922Z,13.90
2019-01-21T15:07:08.346Z,14.47
2019-01-21T15:09:43.748Z,27.07
2019-01-21T15:12:24.932Z,27.67
2019-01-21T15:15:24.452Z,27.40
2019-01-21T15:18:08.652Z,27.70
2019-01-21T15:20:41.199Z,29.50
2019-01-21T15:23:16.258Z,29.73
2019-01-21T15:25:57.588Z,30.63
2019-01-21T15:28:45.143Z,32.17
2019-01-21T15:31:37.042Z,31.93
2019-01-21T15:34:22.679Z,34.07
2019-01-21T15:37:02.366Z,33.97
2019-01-21T15:39:38.955Z,32.90
2019-01-21T15:42:32.263Z,33.93
2019-01-21T15:45:04.716Z,33.10
2019-01-21T15:47:49.049Z,32.80
2019-01-21T15:50:30.323Z,33.33
2019-01-21T15:53:11.719Z,32.83
2019-01-21T15:55:52.751Z,33.83
2019-01-21T15:58:27.878Z,31.13
2019-01-21T16:01:06.251Z,31.33
2019-01-21T16:03:41.602Z,32.50
2019-01-21T16:06:16.684Z,34.70
2019-01-21T16:09:10.108Z,31.80
2019-01-21T16:11:54.525Z,31.57
2019-01-21T16:14:28.295Z,33.30
2019-01-21T16:17:06.776Z,32.87
2019-01-21T16:19:36.846Z,33.07
2019-01-21T16:22:21.451Z,33.23
2019-01-21T16:24:54.016Z,33.57
2019-01-21T16:27:37.249Z,32.93
2019-01-21T16:30:10.911Z,33.73
2019-01-21T16:32:42.576Z,33.80
2019-01-21T16:35:30.503Z,33.60
2019-01-21T16:38:05.625Z,33.53
2019-01-21T16:40:45.666Z,34.57
2019-01-21T16:43:15.107Z,33.67
2019-01-21T16:45:44.699Z,32.60
2019-01-21T16:48:14.212Z,32.23
2019-01-21T16:50:43.666Z,34.07
2019-01-21T16:53:13.309Z,35.57
2019-01-21T16:55:42.849Z,38.00
2019-01-21T16:58:12.371Z,38.37
2019-01-21T17:00:41.801Z,40.47
2019-01-21T17:03:11.355Z,40.23
2019-01-21T17:05:41.042Z,38.63
2019-01-21T17:08:10.569Z,40.50
2019-01-21T17:10:40.195Z,39.47
2019-01-21T17:13:11.165Z,37.53
2019-01-21T17:15:40.683Z,39.00
2019-01-21T17:18:10.210Z,38.07
2019-01-21T17:20:39.610Z,38.50
2019-01-21T17:23:09.142Z,38.67
2019-01-21T17:25:38.630Z,38.60
2019-01-21T17:28:09.649Z,40.67
2019-01-21T17:30:39.255Z,39.27
2019-01-21T17:33:08.721Z,37.97
2019-01-21T17:35:40.362Z,39.40
2019-01-21T17:38:09.914Z,39.87
2019-01-21T17:40:39.534Z,39.73
2019-01-21T17:43:08.995Z,39.83
2019-01-21T17:45:38.479Z,38.40
2019-01-21T17:48:08.013Z,40.07
2019-01-21T17:50:37.664Z,41.13
2019-01-21T17:53:07.112Z,41.07
2019-01-21T17:55:36.644Z,38.80
2019-01-21T17:58:06.179Z,37.93
2019-01-21T18:00:35.779Z,37.07
2019-01-21T18:03:05.690Z,36.47
2019-01-21T18:05:35.209Z,37.57
2019-01-21T18:08:04.793Z,38.60
2019-01-21T18:10:34.295Z,36.77
2019-01-21T18:13:03.766Z,37.07
2019-01-21T18:15:33.226Z,38.77
2019-01-21T18:18:02.799Z,37.70
2019-01-21T18:20:32.305Z,38.60
2019-01-21T18:23:02.062Z,36.50
2019-01-21T18:25:33.032Z,37.30
2019-01-21T18:28:02.702Z,36.63
2019-01-21T18:30:32.956Z,37.37
2019-01-21T18:33:03.865Z,36.90
2019-01-21T18:35:33.322Z,35.30
2019-01-21T18:38:02.843Z,37.70
2019-01-21T18:40:32.409Z,37.27
2019-01-21T18:43:03.441Z,38.40
2019-01-21T18:45:33.084Z,38.23
2019-01-21T18:48:04.211Z,37.97
2019-01-21T18:50:33.743Z,38.97
2019-01-21T18:53:03.205Z,37.90
2019-01-21T18:55:32.747Z,39.47
2019-01-21T18:58:02.121Z,37.37
2019-01-21T19:00:31.585Z,38.77
2019-01-21T19:03:00.966Z,40.50
2019-01-21T19:05:30.420Z,43.87
2019-01-21T19:08:01.391Z,42.80
2019-01-21T19:10:30.795Z,43.30
2019-01-21T19:13:00.237Z,43.33
2019-01-21T19:15:30.962Z,43.23
2019-01-21T19:18:00.535Z,43.63
2019-01-21T19:20:30.087Z,43.70
2019-01-21T19:22:59.520Z,43.47
2019-01-21T19:25:28.978Z,42.53
2019-01-21T19:27:58.413Z,43.03
2019-01-21T19:30:28.474Z,42.57
2019-01-21T19:32:58.052Z,42.87
2019-01-21T19:35:32.421Z,42.50
2019-01-21T19:38:01.996Z,41.53
2019-01-21T19:40:32.260Z,41.93
2019-01-21T19:43:01.876Z,41.83
2019-01-21T19:45:31.400Z,40.70
2019-01-21T19:48:00.963Z,40.73
2019-01-21T19:50:30.490Z,42.00
2019-01-21T19:53:00.034Z,39.50
2019-01-21T19:55:37.937Z,40.87
2019-01-21T19:58:08.023Z,38.83
2019-01-21T20:00:37.573Z,38.30
2019-01-21T20:03:07.070Z,39.70
2019-01-21T20:05:36.595Z,41.30
2019-01-21T20:08:06.163Z,43.80
2019-01-21T20:10:35.811Z,43.67
2019-01-21T20:13:05.281Z,41.67
2019-01-21T20:15:34.909Z,41.87
2019-01-21T20:18:05.199Z,39.77
2019-01-21T20:20:37.442Z,38.07
2019-01-21T20:23:07.035Z,36.63
2019-01-21T20:25:36.432Z,36.87
2019-01-21T20:28:08.973Z,38.40
2019-01-21T20:30:38.456Z,37.13
2019-01-21T20:33:08.027Z,37.37
2019-01-21T20:35:37.551Z,38.37
2019-01-21T20:38:07.206Z,35.63
2019-01-21T20:40:36.878Z,35.87
2019-01-21T20:43:06.304Z,35.07
2019-01-21T20:45:35.900Z,34.37
2019-01-21T20:48:05.467Z,33.67
2019-01-21T20:50:36.001Z,34.47
2019-01-21T20:53:05.854Z,34.77
2019-01-21T20:55:35.564Z,34.00
2019-01-21T20:58:05.395Z,33.23
2019-01-21T21:00:35.808Z,34.17
2019-01-21T21:03:05.582Z,33.80
2019-01-21T21:05:36.079Z,33.40
2019-01-21T21:08:05.586Z,33.33
2019-01-21T21:10:35.042Z,34.10
2019-01-21T21:13:04.560Z,32.60
2019-01-21T21:15:34.410Z,34.50
2019-01-21T21:18:04.005Z,33.50
2019-01-21T21:20:33.711Z,34.90
2019-01-21T21:23:03.111Z,33.73
2019-01-21T21:25:33.839Z,32.77
2019-01-21T21:28:03.292Z,32.83
2019-01-21T21:30:46.072Z,32.20
2019-01-21T21:33:17.242Z,33.97
2019-01-21T21:35:46.710Z,35.40
2019-01-21T21:38:16.215Z,36.80
2019-01-21T21:40:45.836Z,34.27
2019-01-21T21:43:15.396Z,34.80
2019-01-21T21:45:45.027Z,34.97
2019-01-21T21:48:14.620Z,35.00
2019-01-21T21:50:44.083Z,35.73
2019-01-21T21:53:13.716Z,34.20
2019-01-21T21:55:43.263Z,35.27
2019-01-21T21:58:12.815Z,34.93
2019-01-21T22:00:42.471Z,35.40
2019-01-21T22:03:12.009Z,35.73
2019-01-21T22:05:41.612Z,35.60
2019-01-21T22:08:11.092Z,34.53
2019-01-21T22:10:40.571Z,36.53
2019-01-21T22:13:10.046Z,37.13
2019-01-21T22:15:41.091Z,38.20
2019-01-21T22:18:10.593Z,36.93
2019-01-21T22:20:40.077Z,37.33
2019-01-21T22:23:09.553Z,36.77
2019-01-21T22:25:39.011Z,38.53
2019-01-21T22:28:08.685Z,37.93
2019-01-21T22:30:38.331Z,37.97
2019-01-21T22:33:07.783Z,37.20
2019-01-21T22:35:37.267Z,37.50
2019-01-21T22:38:06.777Z,36.43
2019-01-21T22:40:36.384Z,37.57
2019-01-21T22:43:05.990Z,38.10
2019-01-21T22:45:36.929Z,37.37
2019-01-21T22:48:07.053Z,36.77
2019-01-21T22:50:36.661Z,38.63
2019-01-21T22:53:06.122Z,36.93
2019-01-21T22:55:35.615Z,37.27
2019-01-21T22:58:18.936Z,38.63
2019-01-21T23:00:54.540Z,37.07
2019-01-21T23:03:24.217Z,36.37
2019-01-21T23:05:53.836Z,36.20
2019-01-21T23:08:23.703Z,37.03
2019-01-21T23:10:53.156Z,36.20
2019-01-21T23:13:22.627Z,35.63
2019-01-21T23:15:53.799Z,36.53
2019-01-21T23:18:23.393Z,37.03
2019-01-21T23:21:04.792Z,35.53
2019-01-21T23:23:34.436Z,37.00
2019-01-21T23:26:04.344Z,38.67
2019-01-21T23:28:33.766Z,39.00
2019-01-21T23:31:03.802Z,37.23
2019-01-21T23:33:33.377Z,37.13
2019-01-21T23:36:02.825Z,35.83
2019-01-21T23:38:32.404Z,36.63
2019-01-21T23:41:02.448Z,39.33
2019-01-21T23:43:32.263Z,39.97
2019-01-21T23:46:01.928Z,39.43
2019-01-21T23:48:31.384Z,39.77
2019-01-21T23:51:00.870Z,40.53
2019-01-21T23:53:30.420Z,39.03
2019-01-21T23:56:11.611Z,39.33
2019-01-21T23:58:41.549Z,40.67
